Aérodrome :
LOGIN :

S'inscrire | Disclaimer

   EN    FR    IT 

 










Légende :    VFR   VFR Marginal   IFR   IFR Intensif   IFR Très Intensif
Visi : 
Plafond : 
>= 8 km
>= 3000ft
5 à 8 km
1000 à 3000 ft
1500m à 5 km
500 à 1000 ft
800 à 1500m
200 à 500 ft
< 800m
< 200 ft
Symboles :   Orages  Brouillard  Fortes neiges  Fortes précipitations  Vent > 20 kt
SIGMETs :   Divers  Orages  Givrage  Turbulence  Onde Orograph.  Cendres Volcan.







- Altitude de l'aérodrome : 794 ft


LKCV - Čáslav Air Base

DERNIER METAR :
  • 260319Z 23003KT 4000 RA OVC025 04/03 Q1009 RMK GRN

METARs EXPIRÉS :
  • 260300Z VRB02KT 6000 -RA OVC030 04/03 Q1009 NOSIG RMK WHT WHT
  • 260200Z 23002KT 9999 -RA BKN039 OVC050 05/03 Q1008 NOSIG
  • 260100Z VRB01KT 9999 -RA OVC037 05/02 Q1008 NOSIG RMK BLU BLU

TAF TAF LKCV
Valide du 26 à 00h jusqu'au 27 à 00h UTC


252300Z 2600/2700 33007KT 8000 -RA BKN020 OVC045
TEMPO 2600/2609 4000 RA BKN015 OVC030
BECMG 2605/2607 03008KT
TEMPO 2614/2700 4000 RA BKN015 OVC030
Pas de NOTAMs connus pour ce terrain.



MET'MAP, la Météo Aéronautique d'un coup d'oeil ! - Copyright ORBIFLY Décembre 2007 - Disclaimer

ORBIFLY MET'MAP TEAM :

Programmation & Développement : Alexandra Zaïnal
Conception & Développement : Baudouin d'Aumeries
Co-Programmation & Développement : Marc-Olivier Méhu
Soutien technique & logistique : Manuel Goepfert

Contact : metmap@orbifly.com




SOURCES & CREDITS :

   NOAA